Time;durP1;ratioP1;P1;durP2;ratioP2;P2;SDS_P1;SDS_P2;PMS_P1;PMS_P2;Temp;Humidity;BMP_temperature;BMP_pressure;BME280_temperature;BME280_humidity;BME280_pressure;Samples;Min_cycle;Max_cycle;Signal;HPM_P1;HPM_P2
2021/10/14 00:00:43;;;;;;;1.58;1.00;;;;;;;4.31;90.18;100449.47;2322782;66;22392;-79
2021/10/14 00:03:46;;;;;;;1.10;1.00;;;;;;;4.27;90.34;100450.16;2323127;68;20291;-79
2021/10/14 00:06:48;;;;;;;1.51;1.21;;;;;;;4.26;90.54;100457.00;2322634;69;20296;-79
2021/10/14 00:09:51;;;;;;;1.59;0.99;;;;;;;4.28;90.78;100457.06;2324389;69;20280;-79
2021/10/14 00:12:54;;;;;;;2.47;1.00;;;;;;;4.22;90.62;100452.56;2324586;69;20940;-79
2021/10/14 00:15:57;;;;;;;2.06;1.09;;;;;;;4.21;90.85;100454.28;2319571;66;21251;-79
2021/10/14 00:19:00;;;;;;;2.80;1.05;;;;;;;4.23;91.03;100444.91;2322749;69;20425;-79
2021/10/14 00:22:03;;;;;;;2.19;1.05;;;;;;;4.22;91.14;100445.75;2323305;69;20283;-79
2021/10/14 00:25:06;;;;;;;1.58;1.19;;;;;;;4.24;91.37;100438.97;2325404;68;20284;-79
2021/10/14 00:28:09;;;;;;;1.06;0.94;;;;;;;4.23;91.35;100434.63;2325168;68;20292;-79
2021/10/14 00:31:12;;;;;;;1.50;1.06;;;;;;;4.23;91.40;100434.63;2322719;67;25559;-79
2021/10/14 00:34:15;;;;;;;1.54;1.15;;;;;;;4.21;91.33;100431.13;2319152;69;20312;-79
2021/10/14 00:37:17;;;;;;;2.67;1.17;;;;;;;4.19;91.35;100427.63;2323914;69;20297;-79
2021/10/14 00:40:22;;;;;;;2.08;1.39;;;;;;;4.16;91.14;100426.66;2324573;69;20638;-79
2021/10/14 00:43:25;;;;;;;1.79;1.15;;;;;;;4.15;91.17;100432.59;2322936;68;20296;-79
2021/10/14 00:46:28;;;;;;;2.08;1.30;;;;;;;4.09;90.95;100422.06;2322175;67;25804;-79
2021/10/14 00:49:30;;;;;;;1.56;1.00;;;;;;;4.01;90.71;100426.06;2325081;69;20317;-79
2021/10/14 00:52:34;;;;;;;1.02;0.96;;;;;;;3.94;90.62;100428.38;2324055;69;20291;-79
2021/10/14 00:55:38;;;;;;;2.03;1.25;;;;;;;3.88;90.60;100435.84;2323000;68;20337;-79
2021/10/14 00:58:41;;;;;;;1.14;1.00;;;;;;;3.84;90.62;100446.84;2322958;69;20288;-79
2021/10/14 01:01:43;;;;;;;3.72;1.33;;;;;;;3.80;90.61;100447.53;2312218;67;26027;-79
2021/10/14 01:04:46;;;;;;;1.30;1.20;;;;;;;3.75;90.64;100443.00;2324421;68;20333;-79
2021/10/14 01:07:49;;;;;;;1.55;1.34;;;;;;;3.73;90.78;100448.09;2322952;69;20281;-79
2021/10/14 01:10:52;;;;;;;1.33;1.21;;;;;;;3.72;90.80;100450.59;2324877;69;20296;-79
2021/10/14 01:13:54;;;;;;;2.14;1.44;;;;;;;3.68;90.74;100443.59;2323909;68;20794;-80
2021/10/14 01:16:58;;;;;;;2.01;1.59;;;;;;;3.66;90.79;100440.97;2322119;67;24711;-79
2021/10/14 01:20:01;;;;;;;2.80;1.85;;;;;;;3.63;90.73;100439.16;2318597;69;20668;-79
2021/10/14 01:23:05;;;;;;;3.44;1.59;;;;;;;3.60;90.82;100436.47;2313593;69;20288;-79
2021/10/14 01:26:07;;;;;;;2.56;1.39;;;;;;;3.62;90.88;100436.53;2323015;69;20311;-79
2021/10/14 01:29:10;;;;;;;2.04;1.56;;;;;;;3.59;90.85;100426.09;2324466;69;20326;-79
2021/10/14 01:32:13;;;;;;;2.67;1.74;;;;;;;3.52;90.58;100424.13;2322559;66;22254;-79
2021/10/14 01:35:18;;;;;;;3.22;1.77;;;;;;;3.44;90.47;100425.53;2324904;68;20356;-79
2021/10/14 01:38:21;;;;;;;1.74;1.38;;;;;;;3.42;90.56;100425.47;2319344;69;20304;-79
2021/10/14 01:41:24;;;;;;;1.67;1.14;;;;;;;3.37;90.46;100421.81;2325499;69;20712;-79
2021/10/14 01:44:27;;;;;;;3.10;1.40;;;;;;;3.30;90.40;100419.81;2314208;69;20272;-80
2021/10/14 01:47:30;;;;;;;1.99;1.45;;;;;;;3.29;90.66;100423.19;2323214;66;24607;-79
2021/10/14 01:50:33;;;;;;;2.03;1.20;;;;;;;3.28;90.78;100412.06;2324928;69;20337;-79
2021/10/14 01:53:36;;;;;;;2.95;1.84;;;;;;;3.27;90.81;100418.00;2324367;69;20358;-79
2021/10/14 01:56:39;;;;;;;1.30;1.20;;;;;;;3.28;90.97;100417.19;2323811;69;20611;-79
2021/10/14 01:59:42;;;;;;;1.90;1.10;;;;;;;3.27;90.92;100409.44;2324239;69;20711;-80
2021/10/14 02:02:44;;;;;;;1.34;1.20;;;;;;;3.26;90.92;100405.13;2321795;66;22198;-80
2021/10/14 02:05:47;;;;;;;3.03;1.27;;;;;;;3.25;90.92;100408.50;2326997;69;21307;-79
2021/10/14 02:08:50;;;;;;;1.42;1.31;;;;;;;3.21;90.68;100401.47;2326921;69;20312;-79
2021/10/14 02:11:52;;;;;;;1.79;1.34;;;;;;;3.11;90.34;100399.34;2325525;69;20272;-79
2021/10/14 02:14:55;;;;;;;1.71;1.11;;;;;;;3.05;90.37;100397.38;2325265;69;20308;-79
2021/10/14 02:17:58;;;;;;;1.58;1.11;;;;;;;2.98;90.37;100398.81;2324887;66;25341;-79
2021/10/14 02:21:01;;;;;;;2.51;1.20;;;;;;;2.95;90.29;100400.38;2325275;69;20288;-79
2021/10/14 02:24:04;;;;;;;3.38;1.65;;;;;;;2.89;90.32;100395.00;2326836;68;20280;-79
2021/10/14 02:27:06;;;;;;;1.20;1.10;;;;;;;2.85;90.38;100395.66;2322986;69;20453;-79
2021/10/14 02:30:10;;;;;;;3.99;1.27;;;;;;;2.85;90.48;100403.38;2325095;69;20712;-80
2021/10/14 02:33:13;;;;;;;2.38;1.11;;;;;;;2.83;90.59;100402.44;2325123;68;20301;-79
2021/10/14 02:36:16;;;;;;;1.25;1.14;;;;;;;2.83;90.74;100407.56;2325664;69;20446;-79
2021/10/14 02:39:19;;;;;;;1.69;1.36;;;;;;;2.84;90.99;100402.47;2325683;69;20307;-80
2021/10/14 02:42:22;;;;;;;2.55;1.26;;;;;;;2.85;91.00;100403.38;2325827;69;20364;-80
2021/10/14 02:45:24;;;;;;;1.94;1.31;;;;;;;2.89;91.13;100405.28;2325706;67;23939;-80
2021/10/14 02:48:27;;;;;;;2.75;1.44;;;;;;;2.91;91.23;100395.94;2326342;69;20718;-80
2021/10/14 02:51:30;;;;;;;2.90;1.40;;;;;;;2.95;91.42;100401.25;2320267;69;20317;-79
2021/10/14 02:54:33;;;;;;;1.51;1.23;;;;;;;2.99;91.40;100403.13;2326514;68;20661;-80
2021/10/14 02:57:36;;;;;;;3.09;1.10;;;;;;;3.04;91.51;100400.75;2321786;69;20304;-80
2021/10/14 03:00:39;;;;;;;2.36;1.13;;;;;;;3.07;91.46;100400.91;2324099;69;20340;-80
2021/10/14 03:03:41;;;;;;;2.54;1.25;;;;;;;3.09;91.45;100396.72;2319604;69;20390;-79
2021/10/14 03:06:44;;;;;;;1.30;1.20;;;;;;;3.12;91.48;100398.53;2325346;69;20300;-80
2021/10/14 03:09:46;;;;;;;2.89;1.29;;;;;;;3.17;91.73;100407.28;2327632;69;20311;-79
2021/10/14 03:12:49;;;;;;;2.15;1.39;;;;;;;3.23;91.71;100397.25;2326407;69;20292;-79
2021/10/14 03:15:52;;;;;;;1.41;1.08;;;;;;;3.28;91.84;100403.47;2324876;69;20360;-79
2021/10/14 03:18:55;;;;;;;1.83;1.26;;;;;;;3.31;91.88;100406.16;2321686;69;20326;-80
2021/10/14 03:21:58;;;;;;;2.60;1.50;;;;;;;3.37;92.03;100410.66;2320188;69;20313;-80
2021/10/14 03:25:00;;;;;;;1.54;1.26;;;;;;;3.43;92.15;100408.38;2322582;69;20914;-79
2021/10/14 03:28:03;;;;;;;2.16;1.96;;;;;;;3.50;92.25;100406.09;2325789;69;20285;-79
2021/10/14 03:31:06;;;;;;;1.41;1.31;;;;;;;3.57;92.20;100415.78;2324095;69;20292;-80
2021/10/14 03:34:09;;;;;;;1.50;1.38;;;;;;;3.67;92.14;100411.91;2325183;68;20858;-80
2021/10/14 03:37:11;;;;;;;2.20;1.31;;;;;;;3.73;92.10;100407.00;2324868;69;20737;-79
2021/10/14 03:40:14;;;;;;;1.67;1.50;;;;;;;3.75;91.99;100410.50;2324754;69;20641;-80
2021/10/14 03:43:17;;;;;;;3.50;1.70;;;;;;;3.75;92.01;100407.94;2326612;68;21348;-80
2021/10/14 03:46:19;;;;;;;1.88;1.31;;;;;;;3.79;92.06;100407.25;2323444;69;20296;-79
2021/10/14 03:49:22;;;;;;;2.50;1.40;;;;;;;3.81;92.15;100405.63;2326758;69;20288;-79
2021/10/14 03:52:25;;;;;;;2.25;1.73;;;;;;;3.84;92.23;100408.31;2324197;69;20351;-80
2021/10/14 03:55:27;;;;;;;3.34;1.44;;;;;;;3.85;92.28;100404.91;2325801;68;20295;-80
2021/10/14 03:58:30;;;;;;;2.06;1.42;;;;;;;3.88;92.32;100407.59;2326785;69;20299;-79
2021/10/14 04:01:33;;;;;;;3.00;1.96;;;;;;;3.96;92.27;100410.47;2323472;66;26635;-80
2021/10/14 04:04:36;;;;;;;1.89;1.42;;;;;;;4.01;92.13;100410.66;2324523;68;20308;-80
2021/10/14 04:07:38;;;;;;;1.30;1.21;;;;;;;4.04;91.96;100410.75;2320399;69;20352;-79
2021/10/14 04:10:41;;;;;;;2.00;1.73;;;;;;;3.97;91.58;100413.91;2324000;69;20276;-79
2021/10/14 04:13:43;;;;;;;3.22;2.25;;;;;;;3.96;91.86;100405.34;2325882;68;20400;-79
2021/10/14 04:16:46;;;;;;;3.56;2.33;;;;;;;3.93;91.64;100407.75;2324985;69;20284;-79
2021/10/14 04:19:49;;;;;;;4.53;2.84;;;;;;;3.89;91.69;100408.47;2324928;69;20303;-79
2021/10/14 04:22:52;;;;;;;3.15;2.56;;;;;;;3.90;91.70;100412.78;2324634;68;20327;-79
2021/10/14 04:25:54;;;;;;;2.97;2.16;;;;;;;3.89;91.67;100414.47;2325817;69;20296;-79
2021/10/14 04:28:59;;;;;;;5.95;2.71;;;;;;;3.90;91.76;100415.34;2322895;69;20276;-79
2021/10/14 04:32:07;;;;;;;2.99;2.20;;;;;;;3.95;91.88;100424.13;2324900;66;26561;-80
2021/10/14 04:35:09;;;;;;;3.28;1.92;;;;;;;3.97;91.91;100422.50;2322645;69;20280;-78
2021/10/14 04:38:16;;;;;;;2.24;2.01;;;;;;;3.99;91.86;100415.72;2325238;69;20729;-80
2021/10/14 04:41:19;;;;;;;3.04;2.11;;;;;;;4.03;91.93;100421.84;2324522;69;20664;-80
2021/10/14 04:44:22;;;;;;;4.53;2.11;;;;;;;4.04;92.05;100418.47;2324728;68;20272;-80
2021/10/14 04:47:24;;;;;;;3.89;1.70;;;;;;;4.08;92.07;100412.63;2324716;65;22965;-80
2021/10/14 04:50:27;;;;;;;5.01;2.09;;;;;;;4.09;92.11;100411.78;2324879;69;20314;-79
2021/10/14 04:53:30;;;;;;;2.50;1.88;;;;;;;4.10;92.14;100411.84;2326934;68;20280;-80
2021/10/14 04:56:32;;;;;;;2.04;1.83;;;;;;;4.12;92.13;100415.34;2325282;69;20276;-79
2021/10/14 04:59:36;;;;;;;2.74;2.06;;;;;;;4.13;91.90;100419.69;2326453;69;20291;-80
2021/10/14 05:02:38;;;;;;;3.74;1.96;;;;;;;4.13;91.75;100426.50;2323761;66;28495;-80
2021/10/14 05:05:41;;;;;;;3.69;2.40;;;;;;;4.09;91.48;100428.09;2325609;68;20296;-79
2021/10/14 05:08:43;;;;;;;3.59;1.79;;;;;;;4.07;91.56;100423.72;2320765;69;21210;-80
2021/10/14 05:11:46;;;;;;;1.71;1.61;;;;;;;4.06;91.68;100430.53;2325369;69;20280;-80
2021/10/14 05:14:51;;;;;;;2.08;1.88;;;;;;;4.05;91.64;100423.66;2323022;68;20314;-80
2021/10/14 05:17:53;;;;;;;3.16;1.39;;;;;;;4.03;91.61;100424.44;2323647;65;23625;-80
2021/10/14 05:20:56;;;;;;;4.30;2.34;;;;;;;3.99;91.63;100422.56;2325038;69;20288;-79
2021/10/14 05:23:59;;;;;;;1.96;1.83;;;;;;;3.97;91.94;100427.66;2325891;68;20388;-79
2021/10/14 05:27:02;;;;;;;3.30;2.00;;;;;;;4.04;92.28;100428.75;2324162;69;20305;-79
2021/10/14 05:30:05;;;;;;;2.49;1.90;;;;;;;4.10;92.42;100426.41;2323733;69;20272;-80
2021/10/14 05:33:08;;;;;;;4.01;2.11;;;;;;;4.15;92.63;100427.47;2326891;65;25072;-80
2021/10/14 05:36:11;;;;;;;3.60;2.05;;;;;;;4.18;92.70;100428.47;2326120;68;20752;-80
2021/10/14 05:39:13;;;;;;;3.34;2.05;;;;;;;4.20;92.74;100424.25;2326331;69;20776;-80
2021/10/14 05:42:16;;;;;;;1.67;1.44;;;;;;;4.26;92.72;100423.59;2325398;69;20909;-80
2021/10/14 05:45:19;;;;;;;1.96;1.79;;;;;;;4.25;92.68;100430.41;2324219;65;24499;-79
2021/10/14 05:48:21;;;;;;;4.40;2.16;;;;;;;4.26;92.71;100433.88;2325829;69;20315;-80
2021/10/14 05:51:24;;;;;;;2.51;2.29;;;;;;;4.29;92.73;100433.09;2325917;69;20757;-79
2021/10/14 05:54:26;;;;;;;2.33;2.06;;;;;;;4.32;92.80;100426.41;2325393;68;20312;-79
2021/10/14 05:57:29;;;;;;;2.92;2.22;;;;;;;4.34;92.91;100431.59;2327088;69;20280;-79
2021/10/14 06:00:32;;;;;;;4.22;2.16;;;;;;;4.40;92.98;100424.97;2324574;69;20375;-80
2021/10/14 06:04:19;;;;;;;2.85;2.04;;;;;;;4.49;92.87;100427.91;2329244;68;20292;-81
2021/10/14 06:08:41;;;;;;;2.24;1.69;;;;;;;4.57;92.82;100428.16;2334599;69;20315;-80
2021/10/14 06:19:52;;;;;;;2.22;2.00;;;;;;;4.69;92.74;100425.19;2334377;70;20242;-81
2021/10/14 06:22:55;;;;;;;2.55;1.77;;;;;;;4.72;92.96;100426.16;2326794;68;20309;-80
2021/10/14 06:25:58;;;;;;;2.45;1.85;;;;;;;4.77;93.08;100427.19;2327009;69;20687;-80
2021/10/14 06:29:00;;;;;;;2.16;1.96;;;;;;;4.83;93.11;100429.97;2327214;69;20292;-80
2021/10/14 06:32:03;;;;;;;3.44;2.11;;;;;;;4.90;93.27;100435.34;2326729;65;26835;-80
2021/10/14 06:35:06;;;;;;;2.92;2.41;;;;;;;4.99;93.38;100436.53;2327115;68;20308;-80
2021/10/14 07:13:45;;;;;;;4.40;3.19;;;;;;;6.65;90.76;100416.00;2329202;68;20264;-82
2021/10/14 07:16:49;;;;;;;4.04;3.14;;;;;;;6.83;90.34;100413.06;2324646;68;20350;-83
2021/10/14 07:19:52;;;;;;;3.63;2.91;;;;;;;7.02;89.91;100414.41;2339449;68;20496;-83
2021/10/14 07:22:55;;;;;;;4.24;2.81;;;;;;;7.26;89.48;100412.47;2332728;68;20292;-83
2021/10/14 07:25:57;;;;;;;4.63;3.40;;;;;;;7.58;88.64;100412.38;2325993;68;20249;-82
2021/10/14 07:29:02;;;;;;;6.20;3.42;;;;;;;7.83;87.95;100408.66;2341519;68;20237;-82
2021/10/14 07:32:17;;;;;;;5.57;3.41;;;;;;;8.17;87.08;100399.94;2335521;68;20425;-83
2021/10/14 07:35:35;;;;;;;4.71;2.64;;;;;;;8.52;85.78;100399.81;2336552;68;20307;-82
2021/10/14 07:38:50;;;;;;;6.06;3.42;;;;;;;8.83;84.33;100402.16;2322791;69;20283;-80
2021/10/14 07:41:53;;;;;;;3.69;3.01;;;;;;;9.07;83.06;100401.72;2327168;69;20272;-81
2021/10/14 07:44:56;;;;;;;4.64;3.41;;;;;;;9.40;82.08;100404.03;2328577;68;20271;-80
2021/10/14 07:47:59;;;;;;;3.61;3.11;;;;;;;9.60;80.58;100404.34;2318265;66;28494;-80
2021/10/14 07:51:03;;;;;;;3.55;3.24;;;;;;;9.69;80.03;100400.19;2323324;69;20236;-80
2021/10/14 07:54:06;;;;;;;3.39;3.05;;;;;;;9.92;79.14;100405.72;2325807;68;20275;-80
2021/10/14 07:57:09;;;;;;;5.38;3.28;;;;;;;10.20;78.28;100411.28;2327784;69;20148;-80
2021/10/14 08:00:12;;;;;;;4.32;3.10;;;;;;;10.48;77.79;100417.75;2326953;69;20160;-80
2021/10/14 08:03:20;;;;;;;3.75;2.96;;;;;;;10.71;76.77;100413.69;2328472;68;20257;-80
2021/10/14 08:06:23;;;;;;;5.46;2.92;;;;;;;10.94;76.15;100415.66;2327503;69;20187;-80
2021/10/14 08:09:26;;;;;;;6.03;2.72;;;;;;;11.11;75.20;100407.19;2324480;69;20784;-80
2021/10/14 08:12:28;;;;;;;3.19;2.95;;;;;;;11.32;74.57;100413.47;2322183;69;20177;-80
2021/10/14 08:15:31;;;;;;;4.95;3.06;;;;;;;11.57;74.06;100410.19;2323272;68;20160;-80
2021/10/14 08:18:34;;;;;;;4.21;3.22;;;;;;;11.80;73.90;100418.19;2324108;69;20605;-80
2021/10/14 08:21:39;;;;;;;4.46;3.10;;;;;;;12.05;73.26;100407.09;2323770;69;20171;-80
2021/10/14 08:24:46;;;;;;;3.80;3.05;;;;;;;12.30;72.30;100412.44;2326210;68;20205;-80
2021/10/14 08:28:19;;;;;;;5.78;2.89;;;;;;;12.59;72.20;100415.19;2332717;69;20100;-80
2021/10/14 08:32:37;;;;;;;5.36;3.46;;;;;;;12.52;71.41;100411.66;2327489;68;20100;-81
2021/10/14 08:36:53;;;;;;;3.59;2.92;;;;;;;12.39;71.41;100418.56;2315745;69;20219;-82
2021/10/14 08:41:22;;;;;;;3.13;2.83;;;;;;;12.58;71.46;100418.66;2302226;70;20182;-82
2021/10/14 15:18:22;;;;;;;4.35;0.69;;;;;;;15.84;59.42;100059.06;2341480;68;20140;-82
2021/10/14 15:21:25;;;;;;;2.06;0.72;;;;;;;15.82;59.47;100059.97;2319750;69;20151;-78
2021/10/14 15:24:28;;;;;;;3.51;0.51;;;;;;;15.76;59.22;100055.69;2323922;68;20190;-79
2021/10/14 15:27:31;;;;;;;2.09;0.40;;;;;;;15.79;60.81;100055.63;2327919;68;20159;-80
2021/10/14 15:30:37;;;;;;;3.21;0.93;;;;;;;15.80;61.75;100052.16;2326235;66;21498;-79
2021/10/14 15:33:40;;;;;;;3.08;0.60;;;;;;;15.80;62.50;100049.53;2329202;68;20163;-79
2021/10/14 15:36:44;;;;;;;3.83;0.70;;;;;;;15.99;62.15;100052.72;2329591;68;20147;-79
2021/10/14 15:39:48;;;;;;;4.81;0.80;;;;;;;16.23;61.55;100044.47;2327278;68;20215;-79
2021/10/14 15:42:51;;;;;;;1.31;0.55;;;;;;;16.28;61.43;100047.00;2329512;68;20227;-79
2021/10/14 15:45:54;;;;;;;0.91;0.44;;;;;;;16.33;61.44;100045.16;2326145;66;46128;-79
2021/10/14 15:48:56;;;;;;;1.35;0.60;;;;;;;16.17;61.82;100049.81;2327075;68;20175;-79
2021/10/14 15:51:59;;;;;;;5.78;0.50;;;;;;;15.76;61.13;100047.81;2329260;68;20177;-79
2021/10/14 15:55:02;;;;;;;5.66;2.38;;;;;;;15.29;62.45;100043.25;2327870;68;21009;-79
2021/10/14 15:58:05;;;;;;;1.26;0.60;;;;;;;14.90;63.34;100049.81;2328255;68;20147;-79
2021/10/14 16:01:08;;;;;;;1.23;0.50;;;;;;;14.50;65.59;100048.47;2326138;66;32239;-79
2021/10/14 16:04:10;;;;;;;5.00;0.80;;;;;;;14.15;67.43;100040.06;2328213;68;20230;-79
2021/10/14 16:07:14;;;;;;;2.42;0.60;;;;;;;13.82;68.82;100039.47;2330132;68;20171;-79
2021/10/14 16:10:17;;;;;;;1.71;0.60;;;;;;;13.53;70.00;100039.66;2328123;68;20155;-79
2021/10/14 16:13:19;;;;;;;2.28;0.60;;;;;;;13.28;70.90;100043.25;2328487;68;20151;-79
2021/10/14 16:16:23;;;;;;;4.03;0.55;;;;;;;13.06;71.85;100031.16;2325859;66;20724;-79
2021/10/14 16:19:26;;;;;;;5.86;0.60;;;;;;;12.86;72.51;100033.84;2324083;68;20288;-80
2021/10/14 16:22:29;;;;;;;0.80;0.46;;;;;;;12.54;73.64;100032.19;2328338;68;20215;-79
2021/10/14 16:25:31;;;;;;;2.44;0.50;;;;;;;12.39;73.88;100032.25;2328537;68;20166;-79
2021/10/14 16:28:37;;;;;;;4.84;0.60;;;;;;;12.23;74.43;100033.13;2328009;68;20592;-80
2021/10/14 16:31:41;;;;;;;1.55;0.50;;;;;;;12.03;75.13;100034.00;2326521;66;23877;-79
2021/10/14 16:34:43;;;;;;;5.29;0.55;;;;;;;11.89;75.41;100034.88;2332921;68;20202;-79
2021/10/14 16:37:46;;;;;;;2.38;0.52;;;;;;;11.81;75.92;100024.44;2328834;68;20435;-79
2021/10/14 16:40:48;;;;;;;1.46;0.60;;;;;;;11.67;76.53;100031.31;2329203;68;20218;-79
2021/10/14 16:43:51;;;;;;;2.61;0.70;;;;;;;11.52;76.97;100029.56;2328253;68;20202;-79
2021/10/14 16:46:57;;;;;;;2.20;0.50;;;;;;;11.36;77.37;100023.47;2325679;66;25097;-79
2021/10/14 16:50:00;;;;;;;0.99;0.50;;;;;;;11.22;77.71;100027.75;2327863;68;20254;-79
2021/10/14 16:53:02;;;;;;;1.29;0.60;;;;;;;11.08;77.92;100024.25;2330355;68;20182;-79
2021/10/14 16:56:05;;;;;;;1.89;0.39;;;;;;;10.98;78.22;100027.69;2328136;68;20147;-79
2021/10/14 16:59:10;;;;;;;1.36;0.52;;;;;;;10.84;78.60;100025.00;2328491;68;20139;-79
2021/10/14 17:02:13;;;;;;;3.85;0.57;;;;;;;10.71;78.77;100023.22;2326007;66;27207;-79
2021/10/14 17:05:16;;;;;;;1.55;0.54;;;;;;;10.54;79.23;100016.19;2329651;68;20867;-79
2021/10/14 17:08:20;;;;;;;3.46;0.69;;;;;;;10.42;79.83;100015.28;2330406;68;20329;-79
2021/10/14 17:11:27;;;;;;;1.40;0.40;;;;;;;10.32;80.15;100018.66;2328257;68;20151;-79
2021/10/14 17:14:49;;;;;;;2.54;0.55;;;;;;;10.21;80.35;100015.97;2330607;68;20230;-79
2021/10/14 17:17:56;;;;;;;4.19;0.51;;;;;;;10.10;80.85;100018.47;2325025;66;24086;-78
2021/10/14 17:21:10;;;;;;;1.09;0.45;;;;;;;10.02;80.98;100014.94;2327206;68;20228;-78
2021/10/14 17:37:50;;;;;;;1.52;0.59;;;;;;;9.55;82.55;100022.31;2327680;68;20151;-78
2021/10/14 17:41:05;;;;;;;0.99;0.49;;;;;;;9.45;82.72;100020.47;2328132;68;20782;-78
2021/10/14 17:44:08;;;;;;;1.34;0.60;;;;;;;9.36;82.98;100016.94;2329334;68;20166;-79
2021/10/14 17:47:13;;;;;;;1.60;0.59;;;;;;;9.26;82.90;100019.41;2325710;66;24069;-78
2021/10/14 17:50:17;;;;;;;1.70;0.50;;;;;;;9.17;82.96;100014.13;2326237;68;20321;-78
2021/10/14 17:53:21;;;;;;;2.03;0.57;;;;;;;9.08;83.15;100009.72;2326675;68;20300;-78
2021/10/14 17:56:23;;;;;;;3.44;0.60;;;;;;;9.01;83.42;100005.31;2326547;68;20558;-78
2021/10/14 17:59:26;;;;;;;2.67;0.70;;;;;;;8.93;83.67;100010.38;2328811;68;20864;-78
2021/10/14 18:02:29;;;;;;;2.24;0.50;;;;;;;8.87;83.84;100015.50;2320065;66;22550;-78
2021/10/14 18:09:21;;;;;;;2.28;0.71;;;;;;;8.74;84.34;100006.69;2324289;68;20323;-78
2021/10/14 18:39:15;;;;;;;1.95;0.80;;;;;;;8.11;86.18;99991.13;2327444;68;20287;-78
2021/10/14 18:42:18;;;;;;;1.80;0.71;;;;;;;8.06;86.13;99982.41;2327345;68;20404;-78
2021/10/14 18:45:20;;;;;;;1.02;0.77;;;;;;;7.99;86.16;99989.22;2325841;68;20301;-79
2021/10/14 18:48:25;;;;;;;0.81;0.70;;;;;;;7.95;86.24;99984.84;2325736;66;23512;-78
2021/10/14 18:51:28;;;;;;;8.71;1.25;;;;;;;7.88;86.40;99986.44;2329427;68;20367;-79
2021/10/14 18:54:31;;;;;;;1.86;0.77;;;;;;;7.85;86.45;99985.53;2327089;68;20295;-79
2021/10/14 18:57:33;;;;;;;0.89;0.68;;;;;;;7.78;86.46;99978.53;2328413;68;20761;-78
2021/10/14 19:00:40;;;;;;;1.85;1.24;;;;;;;7.70;86.35;99977.53;2325068;66;21953;-78
2021/10/14 19:07:12;;;;;;;1.85;0.81;;;;;;;7.61;86.41;99967.06;2328254;68;20383;-79
2021/10/14 19:16:47;;;;;;;1.70;0.88;;;;;;;7.47;87.16;99970.28;2325646;66;24637;-78
2021/10/14 19:20:20;;;;;;;2.09;1.16;;;;;;;7.43;87.20;99971.06;2328785;68;20352;-79
2021/10/14 20:14:59;;;;;;;1.90;1.46;;;;;;;6.67;88.38;99951.56;2335984;68;20393;-80
2021/10/14 20:21:44;;;;;;;2.08;1.74;;;;;;;6.56;88.37;99953.91;2333429;68;20309;-80
2021/10/14 20:24:47;;;;;;;2.25;1.69;;;;;;;6.51;88.55;99952.94;2334145;68;20306;-81
2021/10/14 20:27:59;;;;;;;1.71;1.48;;;;;;;6.50;88.75;99953.78;2334923;68;20301;-80
2021/10/14 20:31:06;;;;;;;2.76;1.69;;;;;;;6.45;88.82;99957.97;2335403;66;43324;-81
2021/10/14 20:34:45;;;;;;;2.00;1.77;;;;;;;6.40;88.71;99950.97;2335937;68;20303;-80
2021/10/14 20:37:57;;;;;;;3.20;2.11;;;;;;;6.35;88.66;99950.88;2334869;68;20377;-80
2021/10/14 20:41:23;;;;;;;3.75;1.50;;;;;;;6.29;88.64;99949.06;2332363;68;20295;-80
2021/10/14 20:44:40;;;;;;;1.83;1.52;;;;;;;6.25;88.59;99946.34;2335590;68;20325;-81
2021/10/14 20:48:01;;;;;;;2.88;2.58;;;;;;;6.16;88.43;99947.03;2336954;66;36796;-81
2021/10/14 20:51:36;;;;;;;4.31;2.06;;;;;;;6.19;88.73;99941.06;2335385;68;20228;-80
2021/10/14 20:54:53;;;;;;;4.51;2.19;;;;;;;6.17;88.71;99935.00;2338067;68;20295;-81
2021/10/14 21:10:08;;;;;;;4.29;2.33;;;;;;;5.95;88.69;99934.53;2329013;69;20264;-80
2021/10/14 21:13:24;;;;;;;3.22;2.09;;;;;;;5.90;88.62;99928.38;2331275;68;20375;-80
2021/10/14 21:16:27;;;;;;;5.18;2.05;;;;;;;5.86;88.76;99917.94;2323295;69;20700;-80
2021/10/14 21:19:32;;;;;;;3.58;2.20;;;;;;;5.82;88.74;99917.03;2324888;69;20308;-81
2021/10/14 21:22:36;;;;;;;3.47;2.19;;;;;;;5.76;88.61;99920.34;2331458;69;20301;-80
2021/10/14 21:25:52;;;;;;;2.75;2.47;;;;;;;5.73;88.71;99912.50;2330421;68;20349;-80
2021/10/14 21:29:10;;;;;;;4.07;2.45;;;;;;;5.67;88.55;99912.38;2330768;69;20284;-80
2021/10/14 21:35:51;;;;;;;4.76;2.33;;;;;;;5.60;88.70;99902.78;2328094;68;20203;-80
2021/10/14 21:39:29;;;;;;;3.94;2.13;;;;;;;5.57;88.88;99899.25;2326610;69;20742;-81
2021/10/14 21:42:37;;;;;;;3.14;2.33;;;;;;;5.52;88.88;99899.13;2331869;68;20272;-80
2021/10/14 21:45:41;;;;;;;3.06;2.17;;;;;;;5.47;88.80;99898.16;2329933;68;20316;-80
2021/10/14 21:48:52;;;;;;;5.55;2.34;;;;;;;5.40;88.79;99897.16;2331230;69;20410;-81
2021/10/14 21:52:06;;;;;;;3.20;2.36;;;;;;;5.38;88.95;99903.94;2329913;69;20292;-81
2021/10/14 21:55:24;;;;;;;2.16;1.79;;;;;;;5.34;88.86;99896.97;2334195;68;20417;-81
2021/10/14 21:58:34;;;;;;;3.34;2.05;;;;;;;5.30;88.84;99892.59;2332877;69;20292;-81
2021/10/14 22:01:39;;;;;;;6.49;2.14;;;;;;;5.27;88.91;99891.66;2333714;67;59238;-81
2021/10/14 22:05:11;;;;;;;4.15;1.92;;;;;;;5.24;88.94;99886.44;2330308;69;20400;-80
2021/10/14 22:08:17;;;;;;;4.57;2.49;;;;;;;5.18;88.95;99879.41;2333690;69;20382;-81
2021/10/14 22:11:30;;;;;;;2.75;2.44;;;;;;;5.15;88.89;99880.22;2326076;69;20710;-81
2021/10/14 22:15:12;;;;;;;3.75;2.26;;;;;;;5.14;89.02;99880.16;2330710;69;20236;-81
2021/10/14 22:18:17;;;;;;;4.06;2.11;;;;;;;5.07;88.88;99881.72;2329223;68;20296;-81
2021/10/14 22:21:48;;;;;;;2.64;1.90;;;;;;;5.02;88.89;99878.16;2331415;68;20355;-80
2021/10/14 22:25:37;;;;;;;2.15;1.65;;;;;;;4.98;88.98;99878.91;2330886;68;20324;-81
2021/10/14 22:29:00;;;;;;;4.14;1.76;;;;;;;4.97;89.17;99874.59;2337429;69;20312;-81
2021/10/14 22:32:26;;;;;;;3.14;1.46;;;;;;;4.91;88.96;99871.88;2321290;68;1224006;-81
2021/10/14 22:36:21;;;;;;;3.96;1.65;;;;;;;4.86;88.86;99868.31;2333074;68;20175;-81
2021/10/14 22:40:09;;;;;;;3.51;1.77;;;;;;;4.78;88.79;99869.81;2339984;68;20398;-81
2021/10/14 22:44:26;;;;;;;3.24;1.79;;;;;;;4.72;88.81;99864.50;2337190;68;20463;-81
2021/10/14 22:48:17;;;;;;;1.92;1.41;;;;;;;4.68;89.04;99853.28;2330198;69;20397;-81
2021/10/14 22:52:51;;;;;;;2.46;1.90;;;;;;;4.66;89.22;99849.75;2312074;69;20285;-81
2021/10/14 23:01:48;;;;;;;3.24;1.60;;;;;;;4.61;89.35;99833.34;2308606;69;20248;-82
2021/10/14 23:10:40;;;;;;;2.14;1.73;;;;;;;4.50;89.27;99820.22;2330515;68;20293;-81
2021/10/14 23:19:36;;;;;;;2.26;1.76;;;;;;;4.42;89.24;99808.84;2338557;69;20263;-81
2021/10/14 23:36:09;;;;;;;1.60;1.50;;;;;;;4.25;89.38;99786.97;2320395;68;20319;-80
2021/10/14 23:43:25;;;;;;;3.22;2.31;;;;;;;4.22;89.48;99782.63;2348985;68;20390;-80
2021/10/14 23:56:35;;;;;;;4.40;1.74;;;;;;;4.22;89.84;99767.19;2337447;69;20381;-81
